This is the latest recevied weather packets stored in our database for station/object W5ALL-WX. If no packets are shown the sender has not sent any weather packets the latest 10 day(s).
| Time | Temp. | Humidity | Pressure | Rain* | Wind** | Luminosity | Snow |
|---|---|---|---|---|---|---|---|
| 1777755616 | 17.78° C | 50% | 1021.1 hPa | 0 mm | - | - | - |
| 1777755316 | 17.22° C | 50% | 1021.2 hPa | 0 mm | - | - | - |
| 1777755016 | 17.22° C | 50% | 1021.3 hPa | 0 mm | - | - | - |
| 1777754716 | 16.67° C | 52% | 1021.5 hPa | 0 mm | - | - | - |
| 1777754416 | 16.67° C | 52% | 1021.6 hPa | 0 mm | - | - | - |
| 1777754116 | 16.67° C | 51% | 1021.6 hPa | 0 mm | - | - | - |
| 1777753816 | 16.67° C | 52% | 1021.7 hPa | 0 mm | - | - | - |
| 1777753516 | 16.67° C | 52% | 1021.8 hPa | 0 mm | - | - | - |
| 1777753216 | 17.22° C | 53% | 1021.8 hPa | 0 mm | - | - | - |
| 1777752916 | 17.22° C | 52% | 1021.8 hPa | 0 mm | - | - | - |
| 1777752616 | 17.22° C | 52% | 1021.8 hPa | 0 mm | - | - | - |
| 1777752316 | 17.22° C | 52% | 1021.9 hPa | 0 mm | - | - | - |
| 1777752016 | 17.22° C | 52% | 1021.9 hPa | 0 mm | - | - | - |
| 1777717292 | 10.56° C | 89% | 1020.6 hPa | 0 mm | - | - | - |
| 1777716992 | 10.56° C | 88% | 1020.5 hPa | 0 mm | - | - | - |
| 1777716692 | 10° C | 88% | 1020.4 hPa | 0 mm | - | - | - |
| 1777716392 | 10.56° C | 89% | 1020.4 hPa | 0 mm | - | - | - |
| 1777716092 | 10° C | 91% | 1020.3 hPa | 0 mm | - | - | - |
| 1777715792 | 10° C | 91% | 1020.2 hPa | 0 mm | - | - | - |
| 1777715492 | 10° C | 92% | 1020.2 hPa | 0 mm | - | - | - |
| 1777715192 | 10° C | 93% | 1020.2 hPa | 0 mm | - | - | - |
| 1777714892 | 10° C | 92% | 1020.2 hPa | 0 mm | - | - | - |
| 1777714592 | 10° C | 92% | 1020.2 hPa | 0 mm | - | - | - |
| 1777714292 | 10° C | 92% | 1020.1 hPa | 0 mm | - | - | - |
| 1777713992 | 10.56° C | 91% | 1020.1 hPa | 0 mm | - | - | - |
* Rain latest hour (hover to see other rain measurements)
** Current wind speed in m/s (hover to see current wind gust speed)